sensor_id;sensor_type;location;lat;lon;timestamp;P1;durP1;ratioP1;P2;durP2;ratioP2
16385;SDS011;8302;51.154;4.456;2023-07-31T00:00:54;5.63;;;2.28;;
16385;SDS011;8302;51.154;4.456;2023-07-31T00:03:21;3.45;;;2.13;;
16385;SDS011;8302;51.154;4.456;2023-07-31T00:05:49;1.83;;;1.20;;
16385;SDS011;8302;51.154;4.456;2023-07-31T00:08:17;3.30;;;1.70;;
16385;SDS011;8302;51.154;4.456;2023-07-31T00:10:44;3.25;;;2.28;;
16385;SDS011;8302;51.154;4.456;2023-07-31T00:13:12;5.22;;;2.83;;
16385;SDS011;8302;51.154;4.456;2023-07-31T00:15:41;2.25;;;1.83;;
16385;SDS011;8302;51.154;4.456;2023-07-31T00:18:09;3.13;;;2.08;;
16385;SDS011;8302;51.154;4.456;2023-07-31T00:20:37;4.93;;;2.30;;
16385;SDS011;8302;51.154;4.456;2023-07-31T00:23:04;3.03;;;2.10;;
16385;SDS011;8302;51.154;4.456;2023-07-31T00:25:32;2.75;;;1.92;;
16385;SDS011;8302;51.154;4.456;2023-07-31T00:28:00;4.57;;;1.95;;
16385;SDS011;8302;51.154;4.456;2023-07-31T00:30:27;3.08;;;2.03;;
16385;SDS011;8302;51.154;4.456;2023-07-31T00:32:56;3.28;;;2.10;;
16385;SDS011;8302;51.154;4.456;2023-07-31T00:35:24;6.13;;;2.88;;
16385;SDS011;8302;51.154;4.456;2023-07-31T00:37:52;5.90;;;2.75;;
16385;SDS011;8302;51.154;4.456;2023-07-31T00:40:19;5.20;;;2.85;;
16385;SDS011;8302;51.154;4.456;2023-07-31T00:42:47;4.25;;;2.63;;
16385;SDS011;8302;51.154;4.456;2023-07-31T00:45:15;4.00;;;2.60;;
16385;SDS011;8302;51.154;4.456;2023-07-31T00:47:42;3.55;;;2.78;;
16385;SDS011;8302;51.154;4.456;2023-07-31T00:50:12;2.63;;;1.52;;
16385;SDS011;8302;51.154;4.456;2023-07-31T00:52:40;2.70;;;1.95;;
16385;SDS011;8302;51.154;4.456;2023-07-31T00:55:08;4.07;;;2.05;;
16385;SDS011;8302;51.154;4.456;2023-07-31T00:57:36;3.22;;;2.00;;
16385;SDS011;8302;51.154;4.456;2023-07-31T01:00:04;2.03;;;1.80;;
16385;SDS011;8302;51.154;4.456;2023-07-31T01:02:32;5.47;;;2.65;;
16385;SDS011;8302;51.154;4.456;2023-07-31T01:05:00;3.70;;;1.48;;
16385;SDS011;8302;51.154;4.456;2023-07-31T01:07:30;3.38;;;1.55;;
16385;SDS011;8302;51.154;4.456;2023-07-31T01:10:33;3.03;;;2.33;;
16385;SDS011;8302;51.154;4.456;2023-07-31T01:13:02;2.25;;;1.85;;
16385;SDS011;8302;51.154;4.456;2023-07-31T01:15:30;3.17;;;2.13;;
16385;SDS011;8302;51.154;4.456;2023-07-31T01:17:58;3.60;;;2.10;;
16385;SDS011;8302;51.154;4.456;2023-07-31T01:20:26;2.03;;;1.42;;
16385;SDS011;8302;51.154;4.456;2023-07-31T01:22:58;3.58;;;2.17;;
16385;SDS011;8302;51.154;4.456;2023-07-31T01:28:09;3.55;;;1.63;;
16385;SDS011;8302;51.154;4.456;2023-07-31T01:30:40;2.20;;;1.50;;
16385;SDS011;8302;51.154;4.456;2023-07-31T01:33:09;4.93;;;2.22;;
16385;SDS011;8302;51.154;4.456;2023-07-31T01:35:37;2.35;;;2.03;;
16385;SDS011;8302;51.154;4.456;2023-07-31T01:38:05;2.60;;;1.15;;
16385;SDS011;8302;51.154;4.456;2023-07-31T01:40:32;6.20;;;2.00;;
16385;SDS011;8302;51.154;4.456;2023-07-31T01:43:01;3.00;;;1.35;;
16385;SDS011;8302;51.154;4.456;2023-07-31T01:45:30;3.80;;;1.80;;
16385;SDS011;8302;51.154;4.456;2023-07-31T01:47:58;3.70;;;1.90;;
16385;SDS011;8302;51.154;4.456;2023-07-31T01:50:26;3.08;;;1.50;;
16385;SDS011;8302;51.154;4.456;2023-07-31T01:52:53;4.07;;;1.85;;
16385;SDS011;8302;51.154;4.456;2023-07-31T01:55:21;2.75;;;1.60;;
16385;SDS011;8302;51.154;4.456;2023-07-31T01:57:49;3.70;;;1.85;;
16385;SDS011;8302;51.154;4.456;2023-07-31T02:00:16;4.75;;;2.30;;
16385;SDS011;8302;51.154;4.456;2023-07-31T02:02:45;3.58;;;2.03;;
16385;SDS011;8302;51.154;4.456;2023-07-31T02:05:13;1.40;;;1.20;;
16385;SDS011;8302;51.154;4.456;2023-07-31T02:07:41;4.10;;;1.70;;
16385;SDS011;8302;51.154;4.456;2023-07-31T02:10:09;3.22;;;1.42;;
16385;SDS011;8302;51.154;4.456;2023-07-31T02:12:37;5.57;;;2.15;;
16385;SDS011;8302;51.154;4.456;2023-07-31T02:15:05;2.13;;;1.80;;
16385;SDS011;8302;51.154;4.456;2023-07-31T02:17:33;3.80;;;2.03;;
16385;SDS011;8302;51.154;4.456;2023-07-31T02:20:02;3.58;;;1.88;;
16385;SDS011;8302;51.154;4.456;2023-07-31T02:22:30;3.00;;;1.27;;
16385;SDS011;8302;51.154;4.456;2023-07-31T02:24:58;0.57;;;0.57;;
16385;SDS011;8302;51.154;4.456;2023-07-31T02:27:25;6.63;;;2.17;;
16385;SDS011;8302;51.154;4.456;2023-07-31T02:29:54;2.42;;;1.10;;
16385;SDS011;8302;51.154;4.456;2023-07-31T02:32:22;3.22;;;1.85;;
16385;SDS011;8302;51.154;4.456;2023-07-31T02:34:50;2.75;;;1.63;;
16385;SDS011;8302;51.154;4.456;2023-07-31T02:37:19;1.55;;;0.93;;
16385;SDS011;8302;51.154;4.456;2023-07-31T02:39:46;4.78;;;1.85;;
16385;SDS011;8302;51.154;4.456;2023-07-31T02:42:14;2.08;;;1.30;;
16385;SDS011;8302;51.154;4.456;2023-07-31T02:44:42;4.80;;;1.60;;
16385;SDS011;8302;51.154;4.456;2023-07-31T02:47:09;1.75;;;1.58;;
16385;SDS011;8302;51.154;4.456;2023-07-31T02:49:37;3.33;;;1.92;;
16385;SDS011;8302;51.154;4.456;2023-07-31T02:52:05;3.95;;;1.80;;
16385;SDS011;8302;51.154;4.456;2023-07-31T02:54:34;4.25;;;2.17;;
16385;SDS011;8302;51.154;4.456;2023-07-31T02:57:02;2.22;;;1.20;;
16385;SDS011;8302;51.154;4.456;2023-07-31T02:59:30;2.90;;;0.98;;
16385;SDS011;8302;51.154;4.456;2023-07-31T03:01:57;3.72;;;1.50;;
16385;SDS011;8302;51.154;4.456;2023-07-31T03:04:25;4.75;;;2.00;;
16385;SDS011;8302;51.154;4.456;2023-07-31T03:06:53;3.08;;;1.90;;
16385;SDS011;8302;51.154;4.456;2023-07-31T03:09:21;2.15;;;1.30;;
16385;SDS011;8302;51.154;4.456;2023-07-31T03:11:50;2.05;;;1.50;;
16385;SDS011;8302;51.154;4.456;2023-07-31T03:14:17;3.97;;;1.90;;
16385;SDS011;8302;51.154;4.456;2023-07-31T03:16:45;1.63;;;1.30;;
16385;SDS011;8302;51.154;4.456;2023-07-31T03:19:13;4.13;;;1.88;;
16385;SDS011;8302;51.154;4.456;2023-07-31T03:21:41;4.85;;;2.20;;
16385;SDS011;8302;51.154;4.456;2023-07-31T03:24:08;4.55;;;2.20;;
16385;SDS011;8302;51.154;4.456;2023-07-31T03:26:38;3.03;;;1.98;;
16385;SDS011;8302;51.154;4.456;2023-07-31T03:29:09;3.40;;;1.67;;
16385;SDS011;8302;51.154;4.456;2023-07-31T03:31:37;2.47;;;1.25;;
16385;SDS011;8302;51.154;4.456;2023-07-31T03:34:04;2.47;;;1.55;;
16385;SDS011;8302;51.154;4.456;2023-07-31T03:36:32;4.43;;;1.92;;
16385;SDS011;8302;51.154;4.456;2023-07-31T03:39:00;2.80;;;1.65;;
16385;SDS011;8302;51.154;4.456;2023-07-31T03:41:27;3.17;;;1.90;;
16385;SDS011;8302;51.154;4.456;2023-07-31T03:43:55;1.20;;;0.90;;
16385;SDS011;8302;51.154;4.456;2023-07-31T03:46:25;3.22;;;1.15;;
16385;SDS011;8302;51.154;4.456;2023-07-31T03:48:53;3.80;;;1.67;;
16385;SDS011;8302;51.154;4.456;2023-07-31T03:51:22;6.25;;;1.52;;
16385;SDS011;8302;51.154;4.456;2023-07-31T03:53:49;3.60;;;1.88;;
16385;SDS011;8302;51.154;4.456;2023-07-31T03:56:17;4.05;;;2.10;;
16385;SDS011;8302;51.154;4.456;2023-07-31T03:58:45;4.63;;;2.20;;
16385;SDS011;8302;51.154;4.456;2023-07-31T04:01:13;3.95;;;1.65;;
16385;SDS011;8302;51.154;4.456;2023-07-31T04:03:42;3.10;;;2.10;;
16385;SDS011;8302;51.154;4.456;2023-07-31T04:06:10;3.60;;;1.83;;
16385;SDS011;8302;51.154;4.456;2023-07-31T04:08:37;3.83;;;1.50;;
16385;SDS011;8302;51.154;4.456;2023-07-31T04:11:05;3.60;;;1.90;;
16385;SDS011;8302;51.154;4.456;2023-07-31T04:13:33;5.43;;;1.35;;
16385;SDS011;8302;51.154;4.456;2023-07-31T04:16:00;4.28;;;2.22;;
16385;SDS011;8302;51.154;4.456;2023-07-31T04:18:28;6.43;;;1.83;;
16385;SDS011;8302;51.154;4.456;2023-07-31T04:20:59;4.10;;;2.17;;
16385;SDS011;8302;51.154;4.456;2023-07-31T04:23:27;6.13;;;2.03;;
16385;SDS011;8302;51.154;4.456;2023-07-31T04:25:55;1.90;;;1.50;;
16385;SDS011;8302;51.154;4.456;2023-07-31T04:28:23;6.47;;;1.90;;
16385;SDS011;8302;51.154;4.456;2023-07-31T04:30:52;2.10;;;1.45;;
16385;SDS011;8302;51.154;4.456;2023-07-31T04:33:20;3.42;;;1.85;;
16385;SDS011;8302;51.154;4.456;2023-07-31T04:35:49;2.15;;;1.58;;
16385;SDS011;8302;51.154;4.456;2023-07-31T04:38:20;2.33;;;1.13;;
16385;SDS011;8302;51.154;4.456;2023-07-31T04:40:48;3.65;;;1.60;;
16385;SDS011;8302;51.154;4.456;2023-07-31T04:43:15;3.13;;;1.50;;
16385;SDS011;8302;51.154;4.456;2023-07-31T04:45:45;1.75;;;1.33;;
16385;SDS011;8302;51.154;4.456;2023-07-31T04:48:13;6.10;;;1.75;;
16385;SDS011;8302;51.154;4.456;2023-07-31T04:50:41;2.45;;;1.38;;
16385;SDS011;8302;51.154;4.456;2023-07-31T04:53:09;1.70;;;1.48;;
16385;SDS011;8302;51.154;4.456;2023-07-31T04:55:38;1.48;;;1.27;;
16385;SDS011;8302;51.154;4.456;2023-07-31T04:58:06;1.52;;;1.42;;
16385;SDS011;8302;51.154;4.456;2023-07-31T05:00:33;3.10;;;1.27;;
16385;SDS011;8302;51.154;4.456;2023-07-31T05:03:01;3.58;;;1.65;;
16385;SDS011;8302;51.154;4.456;2023-07-31T05:05:29;3.72;;;1.55;;
16385;SDS011;8302;51.154;4.456;2023-07-31T05:07:57;6.68;;;1.60;;
16385;SDS011;8302;51.154;4.456;2023-07-31T05:10:24;3.15;;;1.60;;
16385;SDS011;8302;51.154;4.456;2023-07-31T05:12:54;2.63;;;1.80;;
16385;SDS011;8302;51.154;4.456;2023-07-31T05:15:21;1.88;;;1.65;;
16385;SDS011;8302;51.154;4.456;2023-07-31T05:17:49;2.25;;;1.30;;
16385;SDS011;8302;51.154;4.456;2023-07-31T05:20:17;2.30;;;1.23;;
16385;SDS011;8302;51.154;4.456;2023-07-31T05:22:44;4.85;;;1.25;;
16385;SDS011;8302;51.154;4.456;2023-07-31T05:25:12;5.72;;;1.98;;
16385;SDS011;8302;51.154;4.456;2023-07-31T05:27:40;2.45;;;1.40;;
16385;SDS011;8302;51.154;4.456;2023-07-31T05:30:09;3.10;;;1.77;;
16385;SDS011;8302;51.154;4.456;2023-07-31T05:32:37;3.88;;;1.60;;
16385;SDS011;8302;51.154;4.456;2023-07-31T05:35:05;7.53;;;3.58;;
16385;SDS011;8302;51.154;4.456;2023-07-31T05:37:33;9.20;;;4.40;;
16385;SDS011;8302;51.154;4.456;2023-07-31T05:40:01;9.85;;;4.38;;
16385;SDS011;8302;51.154;4.456;2023-07-31T05:42:28;10.80;;;4.90;;
16385;SDS011;8302;51.154;4.456;2023-07-31T05:44:56;32.55;;;9.07;;
16385;SDS011;8302;51.154;4.456;2023-07-31T05:47:25;54.50;;;16.63;;
16385;SDS011;8302;51.154;4.456;2023-07-31T05:49:53;104.15;;;28.13;;
16385;SDS011;8302;51.154;4.456;2023-07-31T05:52:21;105.05;;;33.33;;
16385;SDS011;8302;51.154;4.456;2023-07-31T05:54:48;134.77;;;39.08;;
16385;SDS011;8302;51.154;4.456;2023-07-31T05:57:16;161.93;;;42.33;;
16385;SDS011;8302;51.154;4.456;2023-07-31T05:59:44;172.93;;;45.47;;
16385;SDS011;8302;51.154;4.456;2023-07-31T06:02:12;162.30;;;44.13;;
16385;SDS011;8302;51.154;4.456;2023-07-31T06:04:41;156.88;;;44.08;;
16385;SDS011;8302;51.154;4.456;2023-07-31T06:07:09;133.57;;;38.72;;
16385;SDS011;8302;51.154;4.456;2023-07-31T06:09:37;108.45;;;33.10;;
16385;SDS011;8302;51.154;4.456;2023-07-31T06:12:05;104.10;;;33.78;;
16385;SDS011;8302;51.154;4.456;2023-07-31T06:14:32;92.57;;;30.52;;
16385;SDS011;8302;51.154;4.456;2023-07-31T06:17:00;92.78;;;27.60;;
16385;SDS011;8302;51.154;4.456;2023-07-31T06:19:28;90.47;;;28.02;;
16385;SDS011;8302;51.154;4.456;2023-07-31T06:21:57;90.03;;;29.75;;
16385;SDS011;8302;51.154;4.456;2023-07-31T06:24:25;65.95;;;24.52;;
16385;SDS011;8302;51.154;4.456;2023-07-31T06:26:52;80.00;;;25.73;;
16385;SDS011;8302;51.154;4.456;2023-07-31T06:29:20;88.45;;;26.10;;
16385;SDS011;8302;51.154;4.456;2023-07-31T06:31:48;78.03;;;24.85;;
16385;SDS011;8302;51.154;4.456;2023-07-31T06:34:16;75.53;;;25.35;;
16385;SDS011;8302;51.154;4.456;2023-07-31T06:36:44;75.60;;;23.67;;
16385;SDS011;8302;51.154;4.456;2023-07-31T06:39:13;71.45;;;22.85;;
16385;SDS011;8302;51.154;4.456;2023-07-31T06:41:41;64.07;;;19.75;;
16385;SDS011;8302;51.154;4.456;2023-07-31T06:44:09;62.30;;;21.27;;
16385;SDS011;8302;51.154;4.456;2023-07-31T06:46:37;48.63;;;19.35;;
16385;SDS011;8302;51.154;4.456;2023-07-31T06:49:05;56.80;;;20.40;;
16385;SDS011;8302;51.154;4.456;2023-07-31T06:51:33;56.00;;;19.25;;
16385;SDS011;8302;51.154;4.456;2023-07-31T06:54:02;57.35;;;17.63;;
16385;SDS011;8302;51.154;4.456;2023-07-31T06:56:31;39.83;;;16.55;;
16385;SDS011;8302;51.154;4.456;2023-07-31T06:58:59;38.80;;;14.73;;
16385;SDS011;8302;51.154;4.456;2023-07-31T07:01:27;46.75;;;15.90;;
16385;SDS011;8302;51.154;4.456;2023-07-31T07:03:55;47.00;;;15.32;;
16385;SDS011;8302;51.154;4.456;2023-07-31T07:06:23;42.10;;;14.30;;
16385;SDS011;8302;51.154;4.456;2023-07-31T07:08:50;36.15;;;14.10;;
16385;SDS011;8302;51.154;4.456;2023-07-31T07:11:18;40.03;;;12.90;;
16385;SDS011;8302;51.154;4.456;2023-07-31T07:13:47;42.22;;;13.77;;
16385;SDS011;8302;51.154;4.456;2023-07-31T07:16:15;38.67;;;13.38;;
16385;SDS011;8302;51.154;4.456;2023-07-31T07:18:44;32.33;;;12.13;;
16385;SDS011;8302;51.154;4.456;2023-07-31T07:21:29;28.92;;;11.55;;
16385;SDS011;8302;51.154;4.456;2023-07-31T07:23:57;32.38;;;11.18;;
16385;SDS011;8302;51.154;4.456;2023-07-31T07:26:25;27.70;;;11.50;;
16385;SDS011;8302;51.154;4.456;2023-07-31T07:28:54;32.30;;;10.68;;
16385;SDS011;8302;51.154;4.456;2023-07-31T07:31:25;27.95;;;10.07;;
16385;SDS011;8302;51.154;4.456;2023-07-31T07:33:53;22.08;;;8.80;;
16385;SDS011;8302;51.154;4.456;2023-07-31T07:36:20;22.67;;;9.32;;
16385;SDS011;8302;51.154;4.456;2023-07-31T07:38:48;16.83;;;4.85;;
16385;SDS011;8302;51.154;4.456;2023-07-31T07:41:16;15.88;;;5.20;;
16385;SDS011;8302;51.154;4.456;2023-07-31T07:43:44;16.35;;;5.75;;
16385;SDS011;8302;51.154;4.456;2023-07-31T07:46:13;13.70;;;5.55;;
16385;SDS011;8302;51.154;4.456;2023-07-31T07:48:41;15.15;;;4.93;;
16385;SDS011;8302;51.154;4.456;2023-07-31T07:51:08;9.93;;;4.13;;
16385;SDS011;8302;51.154;4.456;2023-07-31T07:53:36;13.35;;;4.30;;
16385;SDS011;8302;51.154;4.456;2023-07-31T07:56:04;10.60;;;2.97;;
16385;SDS011;8302;51.154;4.456;2023-07-31T07:58:31;7.07;;;2.90;;
16385;SDS011;8302;51.154;4.456;2023-07-31T08:00:59;5.88;;;3.25;;
16385;SDS011;8302;51.154;4.456;2023-07-31T08:03:28;7.82;;;4.00;;
16385;SDS011;8302;51.154;4.456;2023-07-31T08:05:57;20.33;;;3.92;;
16385;SDS011;8302;51.154;4.456;2023-07-31T08:08:25;9.75;;;4.15;;
16385;SDS011;8302;51.154;4.456;2023-07-31T08:10:53;10.82;;;4.22;;
16385;SDS011;8302;51.154;4.456;2023-07-31T08:13:20;10.10;;;4.55;;
16385;SDS011;8302;51.154;4.456;2023-07-31T08:15:48;7.93;;;3.67;;
16385;SDS011;8302;51.154;4.456;2023-07-31T08:18:16;9.20;;;3.13;;
16385;SDS011;8302;51.154;4.456;2023-07-31T08:20:46;6.45;;;3.30;;
16385;SDS011;8302;51.154;4.456;2023-07-31T08:23:13;3.50;;;2.25;;
16385;SDS011;8302;51.154;4.456;2023-07-31T08:25:41;10.40;;;3.35;;
16385;SDS011;8302;51.154;4.456;2023-07-31T08:28:09;6.40;;;2.25;;
16385;SDS011;8302;51.154;4.456;2023-07-31T08:30:37;2.55;;;1.52;;
16385;SDS011;8302;51.154;4.456;2023-07-31T08:33:04;8.18;;;3.42;;
16385;SDS011;8302;51.154;4.456;2023-07-31T08:35:32;6.68;;;3.08;;
16385;SDS011;8302;51.154;4.456;2023-07-31T08:38:01;5.40;;;2.53;;
16385;SDS011;8302;51.154;4.456;2023-07-31T08:40:29;6.55;;;2.72;;
16385;SDS011;8302;51.154;4.456;2023-07-31T08:42:57;4.97;;;2.00;;
16385;SDS011;8302;51.154;4.456;2023-07-31T08:45:28;3.65;;;2.08;;
16385;SDS011;8302;51.154;4.456;2023-07-31T08:47:56;4.72;;;2.40;;
16385;SDS011;8302;51.154;4.456;2023-07-31T08:50:24;4.65;;;2.10;;
16385;SDS011;8302;51.154;4.456;2023-07-31T08:52:52;7.15;;;2.72;;
16385;SDS011;8302;51.154;4.456;2023-07-31T08:55:25;5.20;;;2.65;;
16385;SDS011;8302;51.154;4.456;2023-07-31T08:57:53;3.30;;;1.98;;
16385;SDS011;8302;51.154;4.456;2023-07-31T09:00:21;2.05;;;1.60;;
16385;SDS011;8302;51.154;4.456;2023-07-31T09:02:52;4.15;;;2.40;;
16385;SDS011;8302;51.154;4.456;2023-07-31T09:05:22;2.50;;;1.40;;
16385;SDS011;8302;51.154;4.456;2023-07-31T09:07:50;4.65;;;2.10;;
16385;SDS011;8302;51.154;4.456;2023-07-31T09:10:18;4.90;;;1.73;;
16385;SDS011;8302;51.154;4.456;2023-07-31T09:12:48;4.95;;;2.42;;
16385;SDS011;8302;51.154;4.456;2023-07-31T09:15:16;4.00;;;2.00;;
16385;SDS011;8302;51.154;4.456;2023-07-31T09:18:01;3.47;;;2.15;;
16385;SDS011;8302;51.154;4.456;2023-07-31T09:20:29;5.45;;;2.42;;
16385;SDS011;8302;51.154;4.456;2023-07-31T09:23:02;5.00;;;1.63;;
16385;SDS011;8302;51.154;4.456;2023-07-31T09:25:32;3.65;;;1.75;;
16385;SDS011;8302;51.154;4.456;2023-07-31T09:28:02;3.25;;;1.67;;
16385;SDS011;8302;51.154;4.456;2023-07-31T09:30:30;3.22;;;1.95;;
16385;SDS011;8302;51.154;4.456;2023-07-31T09:33:02;3.97;;;1.65;;
16385;SDS011;8302;51.154;4.456;2023-07-31T09:35:31;4.07;;;2.05;;
16385;SDS011;8302;51.154;4.456;2023-07-31T09:37:59;3.15;;;2.20;;
16385;SDS011;8302;51.154;4.456;2023-07-31T09:40:28;2.00;;;1.40;;
16385;SDS011;8302;51.154;4.456;2023-07-31T09:42:56;6.05;;;2.13;;
16385;SDS011;8302;51.154;4.456;2023-07-31T09:45:26;3.05;;;1.95;;
16385;SDS011;8302;51.154;4.456;2023-07-31T09:48:07;2.47;;;1.42;;
16385;SDS011;8302;51.154;4.456;2023-07-31T09:50:36;1.77;;;1.42;;
16385;SDS011;8302;51.154;4.456;2023-07-31T09:53:04;3.08;;;1.88;;
16385;SDS011;8302;51.154;4.456;2023-07-31T09:55:32;1.58;;;1.10;;
16385;SDS011;8302;51.154;4.456;2023-07-31T09:58:02;2.55;;;1.55;;
16385;SDS011;8302;51.154;4.456;2023-07-31T10:00:32;3.30;;;1.70;;
16385;SDS011;8302;51.154;4.456;2023-07-31T10:03:01;3.42;;;1.70;;
16385;SDS011;8302;51.154;4.456;2023-07-31T10:05:30;2.65;;;1.60;;
16385;SDS011;8302;51.154;4.456;2023-07-31T10:07:58;2.97;;;1.92;;
16385;SDS011;8302;51.154;4.456;2023-07-31T10:10:26;2.83;;;1.63;;
16385;SDS011;8302;51.154;4.456;2023-07-31T10:12:55;2.35;;;1.38;;
16385;SDS011;8302;51.154;4.456;2023-07-31T10:15:23;3.90;;;2.08;;
16385;SDS011;8302;51.154;4.456;2023-07-31T10:17:53;1.38;;;1.00;;
16385;SDS011;8302;51.154;4.456;2023-07-31T10:20:23;2.15;;;1.42;;
16385;SDS011;8302;51.154;4.456;2023-07-31T10:22:51;1.90;;;1.38;;
16385;SDS011;8302;51.154;4.456;2023-07-31T10:25:20;2.17;;;1.30;;
16385;SDS011;8302;51.154;4.456;2023-07-31T10:27:49;4.65;;;1.33;;
16385;SDS011;8302;51.154;4.456;2023-07-31T10:30:20;3.33;;;2.03;;
16385;SDS011;8302;51.154;4.456;2023-07-31T10:32:48;6.22;;;2.15;;
16385;SDS011;8302;51.154;4.456;2023-07-31T10:35:18;3.95;;;1.63;;
16385;SDS011;8302;51.154;4.456;2023-07-31T10:37:45;4.35;;;1.52;;
16385;SDS011;8302;51.154;4.456;2023-07-31T10:40:16;2.88;;;1.83;;
16385;SDS011;8302;51.154;4.456;2023-07-31T10:42:47;2.08;;;1.38;;
16385;SDS011;8302;51.154;4.456;2023-07-31T10:45:23;3.00;;;1.42;;
16385;SDS011;8302;51.154;4.456;2023-07-31T10:47:57;2.90;;;0.95;;
16385;SDS011;8302;51.154;4.456;2023-07-31T10:50:27;2.67;;;1.63;;
16385;SDS011;8302;51.154;4.456;2023-07-31T10:52:56;3.03;;;1.65;;
16385;SDS011;8302;51.154;4.456;2023-07-31T10:55:25;2.10;;;1.48;;
16385;SDS011;8302;51.154;4.456;2023-07-31T10:57:54;3.40;;;1.52;;
16385;SDS011;8302;51.154;4.456;2023-07-31T11:00:24;2.55;;;1.73;;
16385;SDS011;8302;51.154;4.456;2023-07-31T11:02:59;2.40;;;1.38;;
16385;SDS011;8302;51.154;4.456;2023-07-31T11:08:16;0.88;;;0.73;;
16385;SDS011;8302;51.154;4.456;2023-07-31T11:10:44;2.78;;;1.50;;
16385;SDS011;8302;51.154;4.456;2023-07-31T11:13:12;2.25;;;0.98;;
16385;SDS011;8302;51.154;4.456;2023-07-31T11:15:40;2.80;;;1.50;;
16385;SDS011;8302;51.154;4.456;2023-07-31T11:18:08;3.05;;;1.67;;
16385;SDS011;8302;51.154;4.456;2023-07-31T11:20:37;1.83;;;1.33;;
16385;SDS011;8302;51.154;4.456;2023-07-31T11:23:06;1.92;;;1.15;;
16385;SDS011;8302;51.154;4.456;2023-07-31T11:25:36;1.60;;;0.95;;
16385;SDS011;8302;51.154;4.456;2023-07-31T11:28:04;2.63;;;1.00;;
16385;SDS011;8302;51.154;4.456;2023-07-31T11:30:32;3.58;;;1.55;;
16385;SDS011;8302;51.154;4.456;2023-07-31T11:33:01;2.05;;;1.10;;
16385;SDS011;8302;51.154;4.456;2023-07-31T11:35:31;2.22;;;1.30;;
16385;SDS011;8302;51.154;4.456;2023-07-31T11:37:59;2.38;;;1.35;;
16385;SDS011;8302;51.154;4.456;2023-07-31T11:40:27;1.23;;;1.10;;
16385;SDS011;8302;51.154;4.456;2023-07-31T11:43:03;2.30;;;1.45;;
16385;SDS011;8302;51.154;4.456;2023-07-31T11:45:31;2.28;;;1.17;;
16385;SDS011;8302;51.154;4.456;2023-07-31T11:48:01;1.15;;;1.00;;
16385;SDS011;8302;51.154;4.456;2023-07-31T11:50:29;1.30;;;0.98;;
16385;SDS011;8302;51.154;4.456;2023-07-31T11:53:02;2.35;;;1.38;;
16385;SDS011;8302;51.154;4.456;2023-07-31T11:55:31;2.22;;;1.42;;
16385;SDS011;8302;51.154;4.456;2023-07-31T11:58:03;3.03;;;1.38;;
16385;SDS011;8302;51.154;4.456;2023-07-31T12:00:31;2.17;;;1.40;;
16385;SDS011;8302;51.154;4.456;2023-07-31T12:02:59;1.38;;;0.93;;
16385;SDS011;8302;51.154;4.456;2023-07-31T12:05:27;3.05;;;1.27;;
16385;SDS011;8302;51.154;4.456;2023-07-31T12:07:55;2.38;;;1.10;;
16385;SDS011;8302;51.154;4.456;2023-07-31T12:10:24;2.72;;;1.50;;
16385;SDS011;8302;51.154;4.456;2023-07-31T12:12:56;1.95;;;1.35;;
16385;SDS011;8302;51.154;4.456;2023-07-31T12:15:30;3.38;;;1.58;;
16385;SDS011;8302;51.154;4.456;2023-07-31T12:17:58;1.75;;;1.42;;
16385;SDS011;8302;51.154;4.456;2023-07-31T12:20:26;2.85;;;1.17;;
16385;SDS011;8302;51.154;4.456;2023-07-31T12:22:55;2.05;;;1.70;;
16385;SDS011;8302;51.154;4.456;2023-07-31T12:25:28;2.45;;;1.65;;
16385;SDS011;8302;51.154;4.456;2023-07-31T12:27:56;1.92;;;1.13;;
16385;SDS011;8302;51.154;4.456;2023-07-31T12:30:26;2.67;;;1.60;;
16385;SDS011;8302;51.154;4.456;2023-07-31T12:32:56;4.68;;;1.88;;
16385;SDS011;8302;51.154;4.456;2023-07-31T12:35:23;2.80;;;1.90;;
16385;SDS011;8302;51.154;4.456;2023-07-31T12:37:54;1.70;;;1.30;;
16385;SDS011;8302;51.154;4.456;2023-07-31T12:40:22;2.13;;;1.15;;
16385;SDS011;8302;51.154;4.456;2023-07-31T12:43:00;2.15;;;1.67;;
16385;SDS011;8302;51.154;4.456;2023-07-31T12:45:28;3.72;;;1.88;;
16385;SDS011;8302;51.154;4.456;2023-07-31T12:47:57;3.88;;;1.42;;
16385;SDS011;8302;51.154;4.456;2023-07-31T12:50:25;3.95;;;2.38;;
16385;SDS011;8302;51.154;4.456;2023-07-31T12:52:53;1.98;;;1.27;;
16385;SDS011;8302;51.154;4.456;2023-07-31T12:55:21;2.17;;;1.30;;
16385;SDS011;8302;51.154;4.456;2023-07-31T12:57:49;5.20;;;1.20;;
16385;SDS011;8302;51.154;4.456;2023-07-31T13:00:16;2.90;;;1.77;;
16385;SDS011;8302;51.154;4.456;2023-07-31T13:02:44;1.92;;;1.42;;
16385;SDS011;8302;51.154;4.456;2023-07-31T13:05:14;2.88;;;1.58;;
16385;SDS011;8302;51.154;4.456;2023-07-31T13:07:41;2.60;;;1.35;;
16385;SDS011;8302;51.154;4.456;2023-07-31T13:10:09;1.52;;;1.35;;
16385;SDS011;8302;51.154;4.456;2023-07-31T13:12:37;1.75;;;1.30;;
16385;SDS011;8302;51.154;4.456;2023-07-31T13:15:05;3.78;;;1.73;;
16385;SDS011;8302;51.154;4.456;2023-07-31T13:17:33;4.32;;;1.80;;
16385;SDS011;8302;51.154;4.456;2023-07-31T13:20:01;3.08;;;1.70;;
16385;SDS011;8302;51.154;4.456;2023-07-31T13:22:31;1.50;;;1.27;;
16385;SDS011;8302;51.154;4.456;2023-07-31T13:24:58;2.85;;;1.38;;
16385;SDS011;8302;51.154;4.456;2023-07-31T13:27:26;4.88;;;2.70;;
16385;SDS011;8302;51.154;4.456;2023-07-31T13:29:54;3.47;;;1.80;;
16385;SDS011;8302;51.154;4.456;2023-07-31T13:32:22;3.47;;;1.73;;
16385;SDS011;8302;51.154;4.456;2023-07-31T13:34:49;3.00;;;1.77;;
16385;SDS011;8302;51.154;4.456;2023-07-31T13:37:17;2.17;;;1.60;;
16385;SDS011;8302;51.154;4.456;2023-07-31T13:39:46;3.00;;;1.95;;
16385;SDS011;8302;51.154;4.456;2023-07-31T13:42:14;3.47;;;2.00;;
16385;SDS011;8302;51.154;4.456;2023-07-31T13:44:42;2.65;;;1.88;;
16385;SDS011;8302;51.154;4.456;2023-07-31T13:47:09;1.67;;;1.25;;
16385;SDS011;8302;51.154;4.456;2023-07-31T13:49:37;3.13;;;1.50;;
16385;SDS011;8302;51.154;4.456;2023-07-31T13:52:05;2.03;;;1.63;;
16385;SDS011;8302;51.154;4.456;2023-07-31T13:54:33;2.70;;;1.58;;
16385;SDS011;8302;51.154;4.456;2023-07-31T13:57:02;1.73;;;1.25;;
16385;SDS011;8302;51.154;4.456;2023-07-31T13:59:30;2.70;;;2.10;;
16385;SDS011;8302;51.154;4.456;2023-07-31T14:01:58;1.60;;;1.40;;
16385;SDS011;8302;51.154;4.456;2023-07-31T14:04:26;2.70;;;1.40;;
16385;SDS011;8302;51.154;4.456;2023-07-31T14:06:54;2.20;;;1.67;;
16385;SDS011;8302;51.154;4.456;2023-07-31T14:09:23;2.53;;;1.48;;
16385;SDS011;8302;51.154;4.456;2023-07-31T14:11:51;2.70;;;1.45;;
16385;SDS011;8302;51.154;4.456;2023-07-31T14:14:20;2.30;;;1.30;;
16385;SDS011;8302;51.154;4.456;2023-07-31T14:16:48;3.38;;;1.35;;
16385;SDS011;8302;51.154;4.456;2023-07-31T14:19:16;2.75;;;1.75;;
16385;SDS011;8302;51.154;4.456;2023-07-31T14:21:44;2.35;;;1.50;;
16385;SDS011;8302;51.154;4.456;2023-07-31T14:24:26;2.40;;;1.40;;
16385;SDS011;8302;51.154;4.456;2023-07-31T14:26:54;2.67;;;1.10;;
16385;SDS011;8302;51.154;4.456;2023-07-31T14:29:23;3.40;;;1.60;;
16385;SDS011;8302;51.154;4.456;2023-07-31T14:31:51;1.98;;;1.20;;
16385;SDS011;8302;51.154;4.456;2023-07-31T14:34:18;1.90;;;1.40;;
16385;SDS011;8302;51.154;4.456;2023-07-31T14:36:46;4.47;;;1.33;;
16385;SDS011;8302;51.154;4.456;2023-07-31T14:39:14;3.33;;;1.30;;
16385;SDS011;8302;51.154;4.456;2023-07-31T14:41:41;1.40;;;1.00;;
16385;SDS011;8302;51.154;4.456;2023-07-31T14:44:09;2.65;;;1.40;;
16385;SDS011;8302;51.154;4.456;2023-07-31T14:46:38;2.60;;;1.58;;
16385;SDS011;8302;51.154;4.456;2023-07-31T14:49:07;1.85;;;1.20;;
16385;SDS011;8302;51.154;4.456;2023-07-31T14:51:34;2.97;;;1.15;;
16385;SDS011;8302;51.154;4.456;2023-07-31T14:54:02;1.75;;;1.17;;
16385;SDS011;8302;51.154;4.456;2023-07-31T14:56:30;2.05;;;1.45;;
16385;SDS011;8302;51.154;4.456;2023-07-31T14:58:58;3.20;;;1.23;;
16385;SDS011;8302;51.154;4.456;2023-07-31T15:01:26;1.70;;;1.10;;
16385;SDS011;8302;51.154;4.456;2023-07-31T15:03:55;0.90;;;0.90;;
16385;SDS011;8302;51.154;4.456;2023-07-31T15:06:22;1.77;;;1.08;;
16385;SDS011;8302;51.154;4.456;2023-07-31T15:08:50;2.08;;;1.40;;
16385;SDS011;8302;51.154;4.456;2023-07-31T15:11:18;2.97;;;1.15;;